Home > Products > Valid Products > TAF

000
FTUS44 KLCH 031720
TAFBPT
TAF
KBPT 031720Z 0318/0418 16009KT P6SM SCT035
     FM032300 14005KT P6SM SKC
     FM041500 13010KT P6SM FEW045 SCT250=



000
FTUS44 KLCH 031720
TAFAEX
TAF
KAEX 031720Z 0318/0418 VRB06KT P6SM SCT045
     FM040000 15003KT P6SM SKC
     FM041300 13003KT 6SM BR SKC
     FM041600 12006KT P6SM FEW050=



000
FTUS44 KLCH 031720
TAFLFT
TAF
KLFT 031720Z 0318/0418 18003KT P6SM FEW045
     FM032300 VRB03KT P6SM SKC
     FM041600 11006KT P6SM SCT022=



000
FTUS44 KLCH 031720
TAFLCH
TAF
KLCH 031720Z 0318/0418 20010KT P6SM SCT060
     FM032300 14003KT P6SM SKC
     FM041600 11008KT P6SM BKN040=



000
FTUS44 KLCH 031720
TAFARA
TAF
KARA 031720Z 0318/0418 18006KT P6SM FEW045
     FM032300 VRB03KT P6SM SKC
     FM041600 11010KT P6SM SCT022=



000
FTUS44 KLCH 031720
TAFLFT
TAF
KLFT 031720Z 0318/0418 18003KT P6SM FEW045
     FM032300 VRB03KT P6SM SKC
     FM041600 11006KT P6SM SCT022=



000
FTUS44 KLCH 031720
TAFARA
TAF
KARA 031720Z 0318/0418 18006KT P6SM FEW045
     FM032300 VRB03KT P6SM SKC
     FM041600 11010KT P6SM SCT022=



000
FTUS44 KLCH 031720
TAFBPT
TAF
KBPT 031720Z 0318/0418 16009KT P6SM SCT035
     FM032300 14005KT P6SM SKC
     FM041500 13010KT P6SM FEW045 SCT250=



000
FTUS44 KLCH 031720
TAFAEX
TAF
KAEX 031720Z 0318/0418 VRB06KT P6SM SCT045
     FM040000 15003KT P6SM SKC
     FM041300 13003KT 6SM BR SKC
     FM041600 12006KT P6SM FEW050=



000
FTUS44 KLCH 031720
TAFLCH
TAF
KLCH 031720Z 0318/0418 20010KT P6SM SCT060
     FM032300 14003KT P6SM SKC
     FM041600 11008KT P6SM BKN040=



000
FTUS44 KLCH 031120
TAFLFT
TAF
KLFT 031120Z 0312/0412 00000KT P6SM SKC
      TEMPO 0312/0313 3SM BR
     FM031500 17008KT P6SM SCT050
     FM040000 15004KT P6SM SKC=



000
FTUS44 KLCH 031120
TAFLCH
TAF
KLCH 031120Z 0312/0412 00000KT P6SM SKC
      TEMPO 0312/0313 3SM BR
     FM031500 18010KT P6SM SCT040
     FM040000 15004KT P6SM SKC=



000
FTUS44 KLCH 031120
TAFBPT
TAF
KBPT 031120Z 0312/0412 00000KT P6SM SKC
      TEMPO 0312/0313 3SM BR
     FM031500 18011KT P6SM SCT040
     FM040000 15005KT P6SM SKC=



000
FTUS44 KLCH 031120
TAFARA
TAF
KARA 031120Z 0312/0412 00000KT P6SM SKC
      TEMPO 0312/0313 3SM BR
     FM031500 17010KT P6SM SCT050
     FM040000 15005KT P6SM SKC=



000
FTUS44 KLCH 031120
TAFAEX
TAF
KAEX 031120Z 0312/0412 00000KT P6SM SKC
      TEMPO 0312/0313 3SM BR
     FM031500 18006KT P6SM SCT050
     FM040000 VRB03KT P6SM SKC=



000
FTUS44 KLCH 031120
TAFLCH
TAF
KLCH 031120Z 0312/0412 00000KT P6SM SKC
      TEMPO 0312/0313 3SM BR
     FM031500 18010KT P6SM SCT040
     FM040000 15004KT P6SM SKC=



000
FTUS44 KLCH 031120
TAFBPT
TAF
KBPT 031120Z 0312/0412 00000KT P6SM SKC
      TEMPO 0312/0313 3SM BR
     FM031500 18011KT P6SM SCT040
     FM040000 15005KT P6SM SKC=



000
FTUS44 KLCH 031120
TAFAEX
TAF
KAEX 031120Z 0312/0412 00000KT P6SM SKC
      TEMPO 0312/0313 3SM BR
     FM031500 18006KT P6SM SCT050
     FM040000 VRB03KT P6SM SKC=



000
FTUS44 KLCH 031120
TAFLFT
TAF
KLFT 031120Z 0312/0412 00000KT P6SM SKC
      TEMPO 0312/0313 3SM BR
     FM031500 17008KT P6SM SCT050
     FM040000 15004KT P6SM SKC=



000
FTUS44 KLCH 031120
TAFARA
TAF
KARA 031120Z 0312/0412 00000KT P6SM SKC
      TEMPO 0312/0313 3SM BR
     FM031500 17010KT P6SM SCT050
     FM040000 15005KT P6SM SKC=



000
FTUS44 KLCH 030800 AAA
TAFBPT
TAF AMD
KBPT 030800Z 0308/0406 00000KT P6SM SKC
      TEMPO 0308/0312 4SM BR
     FM031500 17008KT P6SM SCT040=



000
FTUS44 KLCH 030800 AAA
TAFLFT
TAF AMD
KLFT 030800Z 0308/0406 00000KT P6SM SKC
      TEMPO 0308/0312 4SM BR
     FM031500 VRB06KT P6SM SCT050=



000
FTUS44 KLCH 030520
TAFLCH
TAF
KLCH 030520Z 0306/0406 00000KT P6SM SKC
     FM031500 19006KT P6SM SCT050=



000
FTUS44 KLCH 030520
TAFBPT
TAF
KBPT 030520Z 0306/0406 VRB03KT P6SM SKC
     FM031500 17008KT P6SM SCT040=



000
FTUS44 KLCH 030520
TAFAEX
TAF
KAEX 030520Z 0306/0406 00000KT P6SM SKC
     FM031500 18006KT P6SM SCT050=



000
FTUS44 KLCH 030520
TAFARA
TAF
KARA 030520Z 0306/0406 00000KT P6SM SKC
      TEMPO 0310/0313 4SM BR
     FM031500 17006KT P6SM SCT050=



000
FTUS44 KLCH 030520
TAFLFT
TAF
KLFT 030520Z 0306/0406 00000KT P6SM SKC
      TEMPO 0311/0313 5SM BR
     FM031500 VRB06KT P6SM SCT050=



000
FTUS44 KLCH 022325
TAFLCH
TAF
KLCH 022325Z 0300/0324 20004KT P6SM FEW070
     FM031500 19006KT P6SM SCT050=



000
FTUS44 KLCH 022325
TAFBPT
TAF
KBPT 022325Z 0300/0324 20004KT P6SM SKC
     FM031500 17008KT P6SM SCT040=



000
FTUS44 KLCH 022325
TAFLFT
TAF
KLFT 022325Z 0300/0324 VRB03KT P6SM SCT080
      TEMPO 0310/0313 4SM BR
     FM031500 VRB05KT P6SM SCT050=



000
FTUS44 KLCH 022325
TAFARA
TAF
KARA 022325Z 0300/0324 20004KT P6SM SCT070
      TEMPO 0309/0313 4SM BR
     FM031500 17006KT P6SM SCT050=



000
FTUS44 KLCH 022325
TAFAEX
TAF
KAEX 022325Z 0300/0324 VRB03KT P6SM SKC
     FM031500 18006KT P6SM SCT050=



000
FTUS44 KLCH 022325
TAFLFT
TAF
KLFT 022325Z 0300/0324 VRB03KT P6SM SCT080
      TEMPO 0310/0313 4SM BR
     FM031500 VRB05KT P6SM SCT050=



000
FTUS44 KLCH 022325
TAFARA
TAF
KARA 022325Z 0300/0324 20004KT P6SM SCT070
      TEMPO 0309/0313 4SM BR
     FM031500 17006KT P6SM SCT050=



000
FTUS44 KLCH 022325
TAFBPT
TAF
KBPT 022325Z 0300/0324 20004KT P6SM SKC
     FM031500 17008KT P6SM SCT040=



000
FTUS44 KLCH 022325
TAFAEX
TAF
KAEX 022325Z 0300/0324 VRB03KT P6SM SKC
     FM031500 18006KT P6SM SCT050=



000
FTUS44 KLCH 022325
TAFLCH
TAF
KLCH 022325Z 0300/0324 20004KT P6SM FEW070
     FM031500 19006KT P6SM SCT050=



000
FTUS44 KLCH 021734
TAFAEX
TAF
KAEX 021734Z 0218/0318 VRB05KT P6SM SCT050
     FM030100 VRB03KT P6SM SKC=



000
FTUS44 KLCH 021734
TAFLFT
TAF
KLFT 021734Z 0218/0318 15005KT P6SM SCT050
     FM030100 VRB03KT P6SM SKC=



000
FTUS44 KLCH 021734
TAFBPT
TAF
KBPT 021734Z 0218/0318 17006KT P6SM SCT050
     FM030100 VRB03KT P6SM SKC=



000
FTUS44 KLCH 021734
TAFLCH
TAF
KLCH 021734Z 0218/0318 16006KT P6SM SCT050
     FM030100 VRB03KT P6SM SKC=



000
FTUS44 KLCH 021734
TAFARA
TAF
KARA 021734Z 0218/0318 15006KT P6SM SCT050
     FM030100 VRB03KT P6SM SKC=



000
FTUS44 KLCH 021120
TAFLCH
TAF
KLCH 021120Z 0212/0312 VRB03KT P6SM FEW080
     FM021800 16006KT P6SM SCT050=



000
FTUS44 KLCH 021120
TAFBPT
TAF
KBPT 021120Z 0212/0312 VRB03KT P6SM FEW080
     FM021800 17006KT P6SM SCT050=



000
FTUS44 KLCH 021120
TAFLFT
TAF
KLFT 021120Z 0212/0312 VRB03KT P6SM FEW080
     FM021500 15005KT P6SM SCT050=



000
FTUS44 KLCH 021120
TAFAEX
TAF
KAEX 021120Z 0212/0312 VRB03KT P6SM FEW080
     FM021500 11005KT P6SM SCT050=



000
FTUS44 KLCH 021120
TAFARA
TAF
KARA 021120Z 0212/0312 VRB03KT P6SM FEW080
     FM021500 15006KT P6SM SCT050=



000
FTUS44 KLCH 020520
TAFLCH
TAF
KLCH 020520Z 0206/0306 VRB04KT P6SM SCT070
     FM021800 15006KT P6SM SCT050=



000
FTUS44 KLCH 020520
TAFBPT
TAF
KBPT 020520Z 0206/0306 VRB04KT P6SM SCT070
     FM021800 15006KT P6SM SCT050=



000
FTUS44 KLCH 020520
TAFAEX
TAF
KAEX 020520Z 0206/0306 VRB03KT P6SM SKC
     FM021500 11005KT P6SM SCT050=



000
FTUS44 KLCH 020520
TAFLFT
TAF
KLFT 020520Z 0206/0306 VRB04KT P6SM SCT080
     FM021500 10005KT P6SM SCT050=



000
FTUS44 KLCH 020520
TAFBPT
TAF
KBPT 020520Z 0206/0306 VRB04KT P6SM SCT070
     FM021800 15006KT P6SM SCT050=



000
FTUS44 KLCH 020520
TAFAEX
TAF
KAEX 020520Z 0206/0306 VRB03KT P6SM SKC
     FM021500 11005KT P6SM SCT050=



000
FTUS44 KLCH 020520
TAFLFT
TAF
KLFT 020520Z 0206/0306 VRB04KT P6SM SCT080
     FM021500 10005KT P6SM SCT050=



000
FTUS44 KLCH 020520
TAFLCH
TAF
KLCH 020520Z 0206/0306 VRB04KT P6SM SCT070
     FM021800 15006KT P6SM SCT050=



000
FTUS44 KLCH 020520
TAFARA
TAF
KARA 020520Z 0206/0306 VRB04KT P6SM SKC
     FM021500 10006KT P6SM SCT050=



000
FTUS44 KLCH 020520
TAFARA
TAF
KARA 020520Z 0206/0306 VRB04KT P6SM SKC
     FM021500 10006KT P6SM SCT050=



000
FTUS44 KLCH 012340
TAFLFT
TAF
KLFT 012340Z 0200/0224 VRB04KT P6SM SKC
     FM021500 09005KT P6SM SCT050=



000
FTUS44 KLCH 012340
TAFAEX
TAF
KAEX 012340Z 0200/0224 VRB03KT P6SM SKC
     FM021500 11005KT P6SM SCT050=



000
FTUS44 KLCH 012340
TAFBPT
TAF
KBPT 012340Z 0200/0224 VRB04KT P6SM SCT070
     FM021500 12006KT P6SM SCT050=



000
FTUS44 KLCH 012340
TAFARA
TAF
KARA 012340Z 0200/0224 01004KT P6SM SKC
     FM021500 09006KT P6SM SCT050=



000
FTUS44 KLCH 012340
TAFLCH
TAF
KLCH 012340Z 0200/0224 VRB04KT P6SM SKC
     FM021500 10006KT P6SM SCT050=



000
FTUS44 KLCH 012340
TAFAEX
TAF
KAEX 012340Z 0200/0224 VRB03KT P6SM SKC
     FM021500 11005KT P6SM SCT050=



000
FTUS44 KLCH 012340
TAFLFT
TAF
KLFT 012340Z 0200/0224 VRB04KT P6SM SKC
     FM021500 09005KT P6SM SCT050=



000
FTUS44 KLCH 012340
TAFBPT
TAF
KBPT 012340Z 0200/0224 VRB04KT P6SM SCT070
     FM021500 12006KT P6SM SCT050=



000
FTUS44 KLCH 012340
TAFARA
TAF
KARA 012340Z 0200/0224 01004KT P6SM SKC
     FM021500 09006KT P6SM SCT050=



000
FTUS44 KLCH 012340
TAFLCH
TAF
KLCH 012340Z 0200/0224 VRB04KT P6SM SKC
     FM021500 10006KT P6SM SCT050=



000
FTUS44 KLCH 011736
TAFLCH
TAF
KLCH 011736Z 0118/0218 VRB05KT P6SM SCT080
     FM020100 VRB03KT P6SM SKC=



000
FTUS44 KLCH 011736
TAFBPT
TAF
KBPT 011736Z 0118/0218 28006KT P6SM SCT080
     FM020100 VRB03KT P6SM SKC=



000
FTUS44 KLCH 011736
TAFAEX
TAF
KAEX 011736Z 0118/0218 VRB05KT P6SM SCT080
     FM020100 VRB03KT P6SM SKC=



000
FTUS44 KLCH 011736
TAFLFT
TAF
KLFT 011736Z 0118/0218 VRB05KT P6SM SCT080
     FM020100 VRB03KT P6SM SKC=



000
FTUS44 KLCH 011736
TAFARA
TAF
KARA 011736Z 0118/0218 VRB05KT P6SM SCT080
     FM020100 VRB03KT P6SM SKC=



000
FTUS44 KLCH 011120
TAFARA
TAF
KARA 011120Z 0112/0212 33007KT P6SM SCT060
     FM020100 VRB03KT P6SM SKC=



000
FTUS44 KLCH 011120
TAFLFT
TAF
KLFT 011120Z 0112/0212 33007KT P6SM SCT060
     FM020100 VRB03KT P6SM SKC=



000
FTUS44 KLCH 011120
TAFLCH
TAF
KLCH 011120Z 0112/0212 31007KT P6SM SCT060
     FM020100 VRB03KT P6SM SKC=



000
FTUS44 KLCH 011120
TAFAEX
TAF
KAEX 011120Z 0112/0212 02006KT P6SM SCT060
     FM020100 VRB03KT P6SM SKC=



000
FTUS44 KLCH 011120
TAFBPT
TAF
KBPT 011120Z 0112/0212 28006KT P6SM SCT060
     FM020100 VRB03KT P6SM SKC=



000
FTUS44 KLCH 010520
TAFAEX
TAF
KAEX 010520Z 0106/0206 00000KT P6SM SKC
     FM011500 01006KT P6SM SKC=



000
FTUS44 KLCH 010520
TAFARA
TAF
KARA 010520Z 0106/0206 25005KT P6SM SKC
     FM011400 35007KT P6SM SKC=



000
FTUS44 KLCH 010520
TAFBPT
TAF
KBPT 010520Z 0106/0206 25003KT P6SM SKC
     FM011400 34006KT P6SM SKC=



000
FTUS44 KLCH 010520
TAFLFT
TAF
KLFT 010520Z 0106/0206 25005KT P6SM SKC
     FM011400 35006KT P6SM SKC=



000
FTUS44 KLCH 010520
TAFLCH
TAF
KLCH 010520Z 0106/0206 26003KT P6SM SKC
     FM011400 34006KT P6SM SKC=



000
FTUS44 KLCH 010520
TAFAEX
TAF
KAEX 010520Z 0106/0206 00000KT P6SM SKC
     FM011500 01006KT P6SM SKC=



000
FTUS44 KLCH 010520
TAFARA
TAF
KARA 010520Z 0106/0206 25005KT P6SM SKC
     FM011400 35007KT P6SM SKC=



000
FTUS44 KLCH 010520
TAFBPT
TAF
KBPT 010520Z 0106/0206 25003KT P6SM SKC
     FM011400 34006KT P6SM SKC=



000
FTUS44 KLCH 010520
TAFLFT
TAF
KLFT 010520Z 0106/0206 25005KT P6SM SKC
     FM011400 35006KT P6SM SKC=



000
FTUS44 KLCH 010520
TAFLCH
TAF
KLCH 010520Z 0106/0206 26003KT P6SM SKC
     FM011400 34006KT P6SM SKC=



000
FTUS44 KLCH 302321
TAFARA
TAF
KARA 302321Z 0100/0124 26004KT P6SM FEW080
     FM011500 35007KT P6SM SKC=



000
FTUS44 KLCH 302321
TAFBPT
TAF
KBPT 302321Z 0100/0124 22005KT P6SM SKC
     FM011500 34006KT P6SM SKC=



000
FTUS44 KLCH 302321
TAFAEX
TAF
KAEX 302321Z 0100/0124 VRB03KT P6SM FEW080
     FM011500 04006KT P6SM SKC=



000
FTUS44 KLCH 302321
TAFBPT
TAF
KBPT 302321Z 0100/0124 22005KT P6SM SKC
     FM011500 34006KT P6SM SKC=



000
FTUS44 KLCH 302321
TAFLCH
TAF
KLCH 302321Z 0100/0124 24005KT P6SM FEW070
     FM011500 34006KT P6SM SKC=



000
FTUS44 KLCH 302321
TAFARA
TAF
KARA 302321Z 0100/0124 26004KT P6SM FEW080
     FM011500 35007KT P6SM SKC=



000
FTUS44 KLCH 302321
TAFLFT
TAF
KLFT 302321Z 0100/0124 VRB04KT P6SM SKC
     FM011500 35006KT P6SM SKC=



000
FTUS44 KLCH 302321
TAFAEX
TAF
KAEX 302321Z 0100/0124 VRB03KT P6SM FEW080
     FM011500 04006KT P6SM SKC=



000
FTUS44 KLCH 302321
TAFLCH
TAF
KLCH 302321Z 0100/0124 24005KT P6SM FEW070
     FM011500 34006KT P6SM SKC=



000
FTUS44 KLCH 302321
TAFLFT
TAF
KLFT 302321Z 0100/0124 VRB04KT P6SM SKC
     FM011500 35006KT P6SM SKC=



    US Dept of Commerce
    National Oceanic and Atmospheric Administration
    National Weather Service
    1325 East West Highway
    Silver Spring, MD 20910
    Page Author: NWS Internet Services Team
Disclaimer
Information Quality
Credits
Glossary
Privacy Policy
Freedom of Information Act (FOIA)
About Us
Career Opportunities